Time;durP1;ratioP1;P1;durP2;ratioP2;P2;SDS_P1;SDS_P2;PMS_P1;PMS_P2;Temp;Humidity;BMP_temperature;BMP_pressure;BME280_temperature;BME280_humidity;BME280_pressure;Samples;Min_cycle;Max_cycle;Signal;HPM_P1;HPM_P2
2023/03/21 00:00:06;;;;;;;51.15;16.60;;;8.40;99.90;;;;;;5096352;28;20086;-81
2023/03/21 00:02:32;;;;;;;50.33;17.40;;;8.40;99.90;;;;;;5080348;28;20059;-81
2023/03/21 00:04:58;;;;;;;49.70;16.98;;;8.40;99.90;;;;;;5079595;28;20051;-82
2023/03/21 00:07:23;;;;;;;52.40;17.92;;;8.40;99.90;;;;;;5063185;28;20046;-82
2023/03/21 00:09:49;;;;;;;45.83;17.50;;;8.40;99.90;;;;;;5096243;28;20442;-81
2023/03/21 00:12:15;;;;;;;44.70;17.50;;;8.40;99.90;;;;;;5063130;28;20047;-82
2023/03/21 00:14:42;;;;;;;44.83;16.70;;;8.40;99.90;;;;;;5079128;28;20039;-80
2023/03/21 00:17:09;;;;;;;51.10;17.80;;;8.40;99.90;;;;;;5096172;28;20528;-81
2023/03/21 00:19:37;;;;;;;39.88;16.05;;;8.40;99.90;;;;;;5063349;28;20044;-82
2023/03/21 00:22:04;;;;;;;40.42;15.63;;;8.40;99.90;;;;;;5079789;28;20048;-82
2023/03/21 00:24:29;;;;;;;48.60;17.58;;;8.40;99.90;;;;;;5063121;28;20047;-81
2023/03/21 00:26:55;;;;;;;49.08;17.38;;;8.40;99.90;;;;;;5096005;28;20047;-80
2023/03/21 00:29:21;;;;;;;41.03;16.17;;;8.40;99.90;;;;;;5095907;28;20483;-81
2023/03/21 00:31:47;;;;;;;45.55;17.27;;;8.40;99.90;;;;;;5062829;28;20097;-82
2023/03/21 00:34:12;;;;;;;40.30;16.52;;;9.10;99.90;;;;;;5062536;28;20046;-82
2023/03/21 00:36:38;;;;;;;39.20;16.75;;;8.40;99.90;;;;;;5062760;28;20059;-82
2023/03/21 00:39:05;;;;;;;44.47;16.75;;;8.50;99.90;;;;;;5096616;28;20483;-82
2023/03/21 00:41:31;;;;;;;42.63;16.95;;;8.40;99.90;;;;;;5063442;28;20470;-82
2023/03/21 00:43:56;;;;;;;46.90;17.23;;;8.40;99.90;;;;;;5096674;28;20047;-82
2023/03/21 00:46:22;;;;;;;40.63;17.80;;;8.40;99.90;;;;;;5063113;28;20051;-82
2023/03/21 00:48:48;;;;;;;42.05;17.38;;;8.50;99.90;;;;;;5096608;28;20036;-82
2023/03/21 00:51:25;;;;;;;46.13;17.38;;;8.50;99.90;;;;;;5096313;28;20066;-82
2023/03/21 00:53:52;;;;;;;41.90;18.02;;;8.50;99.90;;;;;;5096680;28;20443;-82
2023/03/21 00:56:18;;;;;;;36.75;16.63;;;8.50;99.90;;;;;;5078851;28;20159;-82
2023/03/21 00:58:44;;;;;;;44.72;16.83;;;8.50;99.90;;;;;;5079266;28;20067;-82
2023/03/21 01:01:09;;;;;;;46.90;17.13;;;8.50;99.90;;;;;;5062206;28;20079;-82
2023/03/21 01:03:41;;;;;;;42.53;16.67;;;8.50;99.90;;;;;;5095971;28;20390;-82
2023/03/21 01:06:12;;;;;;;41.67;16.52;;;8.50;99.90;;;;;;5114367;28;20079;-82
2023/03/21 01:08:40;;;;;;;42.88;16.80;;;8.50;99.90;;;;;;5096568;28;20072;-81
2023/03/21 01:11:10;;;;;;;37.80;16.42;;;8.50;99.90;;;;;;5095859;28;20373;-82
2023/03/21 01:13:36;;;;;;;40.58;16.63;;;8.50;99.90;;;;;;5112642;28;20044;-82
2023/03/21 01:16:04;;;;;;;44.28;17.45;;;8.50;99.90;;;;;;5062130;28;20054;-82
2023/03/21 01:18:30;;;;;;;42.13;16.20;;;8.50;99.90;;;;;;5112716;28;20509;-81
2023/03/21 01:20:58;;;;;;;42.72;17.17;;;8.50;99.90;;;;;;5062370;28;20047;-82
2023/03/21 01:23:25;;;;;;;43.53;16.15;;;8.50;99.90;;;;;;5095554;28;20098;-82
2023/03/21 01:25:54;;;;;;;45.75;17.95;;;8.50;99.90;;;;;;5062663;28;20048;-81
2023/03/21 01:28:20;;;;;;;49.10;17.20;;;8.50;99.90;;;;;;5116418;28;20046;-80
2023/03/21 01:30:50;;;;;;;40.47;16.48;;;8.50;99.90;;;;;;5116649;28;20539;-80
2023/03/21 01:33:18;;;;;;;39.55;17.75;;;8.50;99.90;;;;;;5099315;28;20047;-80
2023/03/21 01:35:45;;;;;;;44.47;16.95;;;8.50;99.90;;;;;;5116315;28;20090;-81
2023/03/21 01:38:11;;;;;;;50.83;19.02;;;8.50;99.90;;;;;;5082902;28;20039;-80
2023/03/21 01:40:38;;;;;;;47.22;18.02;;;8.50;99.90;;;;;;5098769;28;20079;-81
2023/03/21 01:43:30;;;;;;;48.65;18.45;;;8.50;99.90;;;;;;5082999;28;20059;-80
2023/03/21 01:46:00;;;;;;;45.45;17.00;;;8.30;99.90;;;;;;5116385;28;20083;-81
2023/03/21 01:48:27;;;;;;;44.85;17.20;;;8.50;99.90;;;;;;5115849;28;20082;-81
2023/03/21 01:50:52;;;;;;;43.15;18.33;;;8.50;99.90;;;;;;5115846;28;20497;-80
2023/03/21 01:53:28;;;;;;;46.08;17.38;;;8.60;99.90;;;;;;5098953;28;20044;-80
2023/03/21 01:56:01;;;;;;;53.25;18.17;;;7.70;99.90;;;;;;5115502;28;20051;-80
2023/03/21 01:58:29;;;;;;;46.38;17.38;;;8.60;99.90;;;;;;5098987;28;20089;-80
2023/03/21 02:00:55;;;;;;;50.92;16.95;;;8.60;99.90;;;;;;5133247;27;20051;-80
2023/03/21 02:03:21;;;;;;;48.15;16.63;;;8.60;99.90;;;;;;5081831;28;20055;-80
2023/03/21 02:05:55;;;;;;;54.13;17.10;;;8.50;99.90;;;;;;5098926;28;20573;-80
2023/03/21 02:08:22;;;;;;;66.97;17.60;;;8.60;99.90;;;;;;5098631;28;20044;-80
2023/03/21 02:10:49;;;;;;;58.78;17.38;;;8.60;99.90;;;;;;5098561;28;20519;-79
2023/03/21 02:13:15;;;;;;;53.08;16.77;;;8.50;99.90;;;;;;5115775;28;20043;-80
2023/03/21 02:15:47;;;;;;;51.55;16.55;;;8.60;99.90;;;;;;5116230;28;20043;-80
2023/03/21 02:18:31;;;;;;;62.97;16.08;;;8.50;99.90;;;;;;5098443;28;20050;-80
2023/03/21 02:21:32;;;;;;;52.50;15.98;;;8.50;99.90;;;;;;5081368;28;20051;-80
2023/03/21 02:24:00;;;;;;;53.88;16.58;;;8.50;99.90;;;;;;5116158;28;20054;-80
2023/03/21 02:26:45;;;;;;;58.78;16.45;;;8.50;99.90;;;;;;5098483;28;20551;-80
2023/03/21 02:29:13;;;;;;;59.15;16.35;;;8.50;99.90;;;;;;5094735;28;20410;-80
2023/03/21 02:32:15;;;;;;;55.28;16.42;;;8.60;99.90;;;;;;5111439;28;20104;-80
2023/03/21 02:34:49;;;;;;;52.50;16.48;;;8.50;99.90;;;;;;5112723;28;20043;-79
2023/03/21 02:37:25;;;;;;;59.00;17.35;;;8.50;99.90;;;;;;5094601;28;20097;-80
2023/03/21 02:40:14;;;;;;;49.15;16.92;;;8.50;99.90;;;;;;5094828;28;20044;-80
2023/03/21 02:43:02;;;;;;;51.33;16.73;;;8.50;99.90;;;;;;5112134;28;20044;-80
2023/03/21 02:45:53;;;;;;;65.63;17.77;;;8.50;99.90;;;;;;5111999;28;20044;-80
2023/03/21 02:48:26;;;;;;;53.70;16.88;;;8.50;99.90;;;;;;5128649;27;20051;-80
2023/03/21 02:50:56;;;;;;;52.30;17.50;;;8.50;99.90;;;;;;5095762;28;20377;-80
2023/03/21 02:53:27;;;;;;;46.05;17.40;;;8.50;99.90;;;;;;5111518;28;20134;-79
2023/03/21 02:55:53;;;;;;;52.30;16.38;;;8.50;99.90;;;;;;5094445;28;20094;-80
2023/03/21 02:58:22;;;;;;;53.03;17.63;;;8.50;99.90;;;;;;5111368;28;20062;-80
2023/03/21 03:00:49;;;;;;;50.92;17.25;;;8.50;99.90;;;;;;5111205;28;20043;-80
2023/03/21 03:03:15;;;;;;;50.50;16.73;;;8.50;99.90;;;;;;5112034;28;20364;-79
2023/03/21 03:06:02;;;;;;;55.38;16.98;;;8.50;99.90;;;;;;5094365;28;20044;-80
2023/03/21 03:08:42;;;;;;;46.03;15.38;;;8.50;99.90;;;;;;5094643;28;20370;-80
2023/03/21 03:11:23;;;;;;;41.55;16.48;;;8.50;99.90;;;;;;5111041;28;20048;-81
2023/03/21 03:14:01;;;;;;;45.67;17.02;;;8.50;99.90;;;;;;5128231;27;20051;-79
2023/03/21 03:16:45;;;;;;;39.97;15.30;;;8.50;99.90;;;;;;5111796;28;20074;-80
2023/03/21 03:19:24;;;;;;;42.53;15.32;;;8.50;99.90;;;;;;5111382;28;20044;-79
2023/03/21 03:22:26;;;;;;;43.50;15.57;;;8.50;99.90;;;;;;5110743;28;20452;-80
2023/03/21 03:25:02;;;;;;;34.10;14.10;;;8.50;99.90;;;;;;5077090;28;20054;-79
2023/03/21 03:27:39;;;;;;;39.72;14.88;;;8.50;99.90;;;;;;5093695;28;20040;-80
2023/03/21 03:30:08;;;;;;;39.88;14.25;;;8.50;99.90;;;;;;5093160;28;20060;-80
2023/03/21 03:32:43;;;;;;;39.88;15.65;;;8.50;99.90;;;;;;5109975;28;20051;-80
2023/03/21 03:35:12;;;;;;;33.67;15.05;;;8.50;99.90;;;;;;5110521;28;20048;-81
2023/03/21 03:37:40;;;;;;;38.38;15.13;;;8.50;99.90;;;;;;5110523;28;20051;-80
2023/03/21 03:40:07;;;;;;;39.42;15.23;;;8.50;99.90;;;;;;5111264;27;20437;-80
2023/03/21 03:42:46;;;;;;;42.70;15.35;;;8.50;99.90;;;;;;5110662;28;20072;-80
2023/03/21 03:45:12;;;;;;;42.75;16.05;;;8.50;99.90;;;;;;5110162;28;20048;-80
2023/03/21 03:48:07;;;;;;;48.92;15.98;;;8.50;99.90;;;;;;5092918;28;20040;-80
2023/03/21 03:50:32;;;;;;;44.72;15.18;;;8.50;99.90;;;;;;5110001;28;20055;-79
2023/03/21 03:53:15;;;;;;;48.63;16.00;;;8.50;99.90;;;;;;5109965;28;20048;-80
2023/03/21 03:55:42;;;;;;;44.88;15.95;;;8.50;99.90;;;;;;5093376;28;20142;-79
2023/03/21 03:58:07;;;;;;;45.58;15.10;;;8.50;99.90;;;;;;5093301;28;20052;-80
2023/03/21 04:00:34;;;;;;;38.97;15.15;;;8.50;99.90;;;;;;5109935;28;20046;-81
2023/03/21 04:03:00;;;;;;;41.13;14.55;;;8.50;99.90;;;;;;5093884;28;20040;-79
2023/03/21 04:05:26;;;;;;;42.13;15.05;;;8.50;99.90;;;;;;5092935;28;20051;-79
2023/03/21 04:07:53;;;;;;;38.88;14.10;;;8.50;99.90;;;;;;5109933;28;20048;-80
2023/03/21 04:10:20;;;;;;;37.65;14.50;;;8.50;99.90;;;;;;5093480;28;20040;-79
2023/03/21 04:12:46;;;;;;;41.20;13.98;;;8.50;99.90;;;;;;5109821;28;20502;-79
2023/03/21 04:15:12;;;;;;;41.50;13.98;;;8.50;99.90;;;;;;5092511;28;20131;-80
2023/03/21 04:17:41;;;;;;;39.90;13.68;;;8.50;99.90;;;;;;5109779;28;20139;-80
2023/03/21 04:20:07;;;;;;;41.63;14.05;;;8.50;99.90;;;;;;5109852;28;20052;-80
2023/03/21 04:22:33;;;;;;;41.00;14.18;;;8.50;99.90;;;;;;5109301;28;20048;-81
2023/03/21 04:25:00;;;;;;;46.22;14.52;;;8.50;99.90;;;;;;5075538;28;20051;-79
2023/03/21 04:27:26;;;;;;;35.17;12.75;;;8.50;99.90;;;;;;5109717;28;20060;-79
2023/03/21 04:29:52;;;;;;;40.08;13.77;;;8.50;99.90;;;;;;5091888;28;20142;-81
2023/03/21 04:32:18;;;;;;;29.80;12.15;;;8.50;99.90;;;;;;5109550;28;20094;-80
2023/03/21 04:34:48;;;;;;;30.27;12.85;;;8.50;99.90;;;;;;5059052;28;20089;-80
2023/03/21 04:37:18;;;;;;;25.77;11.02;;;8.50;99.90;;;;;;5092811;28;20112;-80
2023/03/21 04:39:46;;;;;;;27.13;11.70;;;8.50;99.90;;;;;;5092187;28;20044;-80
2023/03/21 04:42:17;;;;;;;27.20;11.93;;;8.50;99.90;;;;;;5109344;28;20139;-80
2023/03/21 04:44:46;;;;;;;29.05;11.23;;;8.50;99.90;;;;;;5059309;28;20134;-80
2023/03/21 04:47:14;;;;;;;32.22;12.77;;;8.50;99.90;;;;;;5110163;28;20380;-80
2023/03/21 04:49:41;;;;;;;25.38;10.93;;;8.50;99.90;;;;;;5092707;28;20105;-79
2023/03/21 04:52:07;;;;;;;30.02;11.60;;;8.50;99.90;;;;;;5109135;28;20060;-80
2023/03/21 04:54:33;;;;;;;25.33;11.45;;;8.50;99.90;;;;;;5092009;28;20052;-80
2023/03/21 04:56:59;;;;;;;27.05;12.65;;;8.50;99.90;;;;;;5092354;28;20109;-80
2023/03/21 04:59:25;;;;;;;23.85;11.60;;;8.50;99.90;;;;;;5092526;28;20376;-80
2023/03/21 05:01:51;;;;;;;23.50;11.40;;;8.50;99.90;;;;;;5095504;28;20562;-80
2023/03/21 05:04:17;;;;;;;22.83;10.77;;;8.50;99.90;;;;;;5113105;28;20087;-80
2023/03/21 05:06:44;;;;;;;23.77;11.10;;;8.50;99.90;;;;;;5096882;28;20059;-80
2023/03/21 05:09:11;;;;;;;26.20;11.95;;;8.60;99.90;;;;;;5113418;28;20047;-80
2023/03/21 05:11:39;;;;;;;27.30;11.32;;;8.50;99.90;;;;;;5096419;28;20080;-79
2023/03/21 05:14:07;;;;;;;21.55;11.05;;;8.50;99.90;;;;;;5113046;28;20040;-81
2023/03/21 05:16:35;;;;;;;19.33;11.35;;;8.50;99.90;;;;;;5095966;28;20120;-80
2023/03/21 05:19:04;;;;;;;21.40;10.75;;;8.50;99.90;;;;;;5096611;28;20047;-80
2023/03/21 05:21:40;;;;;;;22.30;11.20;;;8.50;99.90;;;;;;5113741;27;20485;-80
2023/03/21 05:24:11;;;;;;;22.00;11.05;;;8.60;99.90;;;;;;5098022;28;20099;-80
2023/03/21 05:26:38;;;;;;;21.17;11.43;;;8.50;99.90;;;;;;5096765;28;20103;-80
2023/03/21 05:29:04;;;;;;;21.15;10.57;;;8.60;99.90;;;;;;5096363;28;20135;-80
2023/03/21 05:31:30;;;;;;;20.65;10.68;;;8.50;99.90;;;;;;5096074;28;20539;-80
2023/03/21 05:33:56;;;;;;;21.20;10.32;;;8.50;99.90;;;;;;5112537;28;20075;-80
2023/03/21 05:36:22;;;;;;;17.70;9.60;;;8.50;99.90;;;;;;5113003;28;20076;-81
2023/03/21 05:38:47;;;;;;;18.08;9.80;;;8.60;99.90;;;;;;5112580;28;20062;-80
2023/03/21 05:41:15;;;;;;;15.70;8.70;;;8.50;99.90;;;;;;5112512;28;20100;-79
2023/03/21 05:43:41;;;;;;;16.77;8.57;;;8.60;99.90;;;;;;5112684;28;20400;-80
2023/03/21 05:46:07;;;;;;;15.27;7.82;;;8.50;99.90;;;;;;5078256;28;20131;-80
2023/03/21 05:48:34;;;;;;;15.52;8.30;;;8.50;99.90;;;;;;5112932;28;20040;-80
2023/03/21 05:51:00;;;;;;;18.48;8.98;;;8.50;99.90;;;;;;5094860;28;20048;-80
2023/03/21 05:53:26;;;;;;;14.20;7.97;;;8.50;99.90;;;;;;5113129;28;20364;-80
2023/03/21 05:55:52;;;;;;;17.20;8.00;;;8.50;99.90;;;;;;5095323;28;20044;-80
2023/03/21 05:58:18;;;;;;;13.60;7.40;;;8.50;99.90;;;;;;5095954;28;20051;-80
2023/03/21 06:00:44;;;;;;;15.65;8.43;;;8.50;99.90;;;;;;5078669;28;20437;-80
2023/03/21 06:03:09;;;;;;;17.77;8.32;;;8.50;99.90;;;;;;5112475;28;20040;-81
2023/03/21 06:05:35;;;;;;;17.35;7.57;;;8.50;99.90;;;;;;5111975;28;20048;-80
2023/03/21 06:08:01;;;;;;;12.80;7.85;;;8.50;99.90;;;;;;5111968;28;20051;-80
2023/03/21 06:10:27;;;;;;;17.80;8.77;;;8.50;99.90;;;;;;5077971;28;20048;-81
2023/03/21 06:12:53;;;;;;;14.90;8.50;;;8.50;99.90;;;;;;5111022;28;20058;-80
2023/03/21 06:15:19;;;;;;;17.05;9.10;;;8.50;99.90;;;;;;5094964;28;20044;-80
2023/03/21 06:17:44;;;;;;;15.05;8.57;;;8.50;99.90;;;;;;5112595;28;20048;-80
2023/03/21 06:20:11;;;;;;;19.50;9.93;;;8.50;99.90;;;;;;5111712;28;20383;-80
2023/03/21 06:22:37;;;;;;;17.58;10.13;;;8.50;99.90;;;;;;5111911;28;20059;-80
2023/03/21 06:25:04;;;;;;;18.27;10.60;;;8.50;99.90;;;;;;5095358;28;20415;-81
2023/03/21 06:27:30;;;;;;;17.60;10.23;;;8.50;99.90;;;;;;5111914;28;20048;-80
2023/03/21 06:29:58;;;;;;;18.08;10.45;;;8.50;99.90;;;;;;5094207;28;20056;-80
2023/03/21 06:32:24;;;;;;;17.60;10.45;;;8.50;99.90;;;;;;5112342;28;20048;-80
2023/03/21 06:34:51;;;;;;;19.58;10.82;;;8.60;99.90;;;;;;5060291;28;20063;-80
2023/03/21 06:37:16;;;;;;;17.13;9.75;;;8.50;99.90;;;;;;5094683;28;20066;-80
2023/03/21 06:39:42;;;;;;;18.13;9.32;;;8.50;99.90;;;;;;5111505;28;20134;-80
2023/03/21 06:42:08;;;;;;;17.67;9.98;;;8.60;99.90;;;;;;5111235;28;20399;-80
2023/03/21 06:44:34;;;;;;;18.17;9.27;;;8.60;99.90;;;;;;5111070;27;20472;-80
2023/03/21 06:47:00;;;;;;;15.70;8.75;;;8.60;99.90;;;;;;5111507;28;20074;-81
2023/03/21 06:49:26;;;;;;;14.15;8.57;;;8.60;99.90;;;;;;5111067;28;20458;-80
2023/03/21 06:51:52;;;;;;;13.50;7.40;;;8.60;99.90;;;;;;5111416;28;20131;-80
2023/03/21 06:54:18;;;;;;;13.95;7.65;;;8.60;99.90;;;;;;5111080;28;20091;-80
2023/03/21 06:56:44;;;;;;;12.63;7.30;;;8.60;99.90;;;;;;5094200;28;20104;-80
2023/03/21 06:59:10;;;;;;;11.57;7.32;;;8.60;99.90;;;;;;5094712;28;20044;-80
2023/03/21 07:01:36;;;;;;;13.88;7.13;;;8.60;99.90;;;;;;5094620;28;20478;-80
2023/03/21 07:04:03;;;;;;;12.88;7.15;;;8.60;99.90;;;;;;5093954;28;20040;-80
2023/03/21 07:06:29;;;;;;;11.25;6.60;;;8.60;99.90;;;;;;5111680;28;20126;-80
2023/03/21 07:08:56;;;;;;;12.52;7.25;;;8.60;99.90;;;;;;5093733;28;20040;-81
2023/03/21 07:11:23;;;;;;;13.57;7.50;;;8.60;99.90;;;;;;5110185;28;20050;-81
2023/03/21 07:13:48;;;;;;;15.00;7.07;;;8.70;99.90;;;;;;5110626;28;20044;-80
2023/03/21 07:16:15;;;;;;;12.48;6.65;;;8.70;99.90;;;;;;5093898;28;20050;-81
2023/03/21 07:18:41;;;;;;;19.10;6.35;;;8.70;99.90;;;;;;5110354;28;20470;-81
2023/03/21 07:21:08;;;;;;;10.75;6.63;;;8.70;99.90;;;;;;5110411;28;20054;-81
2023/03/21 07:23:34;;;;;;;13.80;6.35;;;8.80;99.90;;;;;;5110227;28;20044;-81
2023/03/21 07:26:00;;;;;;;13.55;6.60;;;8.80;99.90;;;;;;5093508;28;20055;-80
2023/03/21 07:28:26;;;;;;;13.20;7.00;;;8.80;99.90;;;;;;5110095;28;20043;-82
2023/03/21 07:30:55;;;;;;;11.75;6.60;;;8.80;99.90;;;;;;5109752;28;20087;-82
2023/03/21 07:33:22;;;;;;;13.30;6.57;;;8.80;99.90;;;;;;5093074;28;20057;-80
2023/03/21 07:35:52;;;;;;;11.93;6.97;;;8.80;99.90;;;;;;5110111;28;20052;-80
2023/03/21 07:38:20;;;;;;;12.88;6.65;;;8.80;99.90;;;;;;5110315;28;20111;-82
2023/03/21 07:40:46;;;;;;;13.75;6.97;;;8.80;99.90;;;;;;5110244;28;20430;-81
2023/03/21 07:43:13;;;;;;;12.65;6.40;;;8.80;99.90;;;;;;5110159;28;20135;-80
2023/03/21 07:45:39;;;;;;;15.13;7.07;;;8.80;99.90;;;;;;5127811;27;20491;-83
2023/03/21 07:48:05;;;;;;;14.32;7.40;;;8.80;99.90;;;;;;5092744;28;20048;-81
2023/03/21 07:50:31;;;;;;;11.68;7.07;;;8.80;99.90;;;;;;5093065;28;20144;-81
2023/03/21 07:52:57;;;;;;;15.65;7.65;;;8.80;99.90;;;;;;5076132;28;20083;-81
2023/03/21 07:55:22;;;;;;;13.45;7.28;;;8.80;99.90;;;;;;5092497;28;20051;-82
2023/03/21 07:57:50;;;;;;;14.70;6.97;;;8.90;99.90;;;;;;5075868;28;20118;-85
2023/03/21 08:00:22;;;;;;;11.27;6.45;;;8.50;99.90;;;;;;5092870;28;20480;-84
2023/03/21 08:02:53;;;;;;;11.05;6.30;;;8.90;99.90;;;;;;5093432;28;20115;-83
2023/03/21 08:05:20;;;;;;;12.18;5.85;;;9.00;99.90;;;;;;5110402;28;20043;-84
2023/03/21 08:07:46;;;;;;;10.35;5.93;;;9.00;99.90;;;;;;5109826;28;20058;-84
2023/03/21 08:10:14;;;;;;;10.82;5.93;;;9.00;99.90;;;;;;5092486;28;20093;-83
2023/03/21 08:12:40;;;;;;;12.63;5.85;;;9.00;99.90;;;;;;5109480;28;20135;-84
2023/03/21 08:15:07;;;;;;;10.15;5.63;;;9.10;99.90;;;;;;5058780;28;20085;-84
2023/03/21 08:17:36;;;;;;;12.45;6.25;;;9.00;99.90;;;;;;5092300;28;20054;-84
2023/03/21 08:20:07;;;;;;;12.60;6.50;;;9.10;99.90;;;;;;5092716;28;20509;-84
2023/03/21 08:22:38;;;;;;;13.60;6.88;;;9.10;99.90;;;;;;5109856;28;20043;-86
2023/03/21 08:25:16;;;;;;;14.02;6.93;;;10.00;99.90;;;;;;5109347;28;20476;-84
2023/03/21 08:27:44;;;;;;;17.67;7.90;;;9.10;99.90;;;;;;5092694;28;20128;-83
2023/03/21 08:30:11;;;;;;;17.98;10.73;;;9.10;99.90;;;;;;5108746;28;20055;-84
2023/03/21 08:32:38;;;;;;;18.38;11.00;;;9.20;99.90;;;;;;5109189;28;20048;-83
2023/03/21 08:35:08;;;;;;;18.15;11.38;;;9.40;99.90;;;;;;5108905;28;20040;-85
2023/03/21 08:37:38;;;;;;;20.25;12.95;;;9.20;99.90;;;;;;5109876;28;20131;-85
2023/03/21 08:40:10;;;;;;;21.00;12.55;;;9.20;99.90;;;;;;5109163;28;20059;-86
2023/03/21 08:42:47;;;;;;;21.98;13.60;;;9.30;99.90;;;;;;5109353;28;20138;-84
2023/03/21 08:45:15;;;;;;;24.90;15.15;;;9.30;99.90;;;;;;5109524;28;20132;-82
2023/03/21 08:47:44;;;;;;;22.75;16.30;;;9.30;99.90;;;;;;5109060;28;20051;-86
2023/03/21 08:50:13;;;;;;;24.35;16.38;;;9.30;99.90;;;;;;5092512;28;20040;-81
2023/03/21 08:52:39;;;;;;;32.92;17.67;;;9.30;99.90;;;;;;5092870;28;20052;-83
2023/03/21 08:55:05;;;;;;;30.90;17.88;;;9.30;99.90;;;;;;5109183;28;20491;-84
2023/03/21 08:57:31;;;;;;;33.38;19.77;;;9.30;99.90;;;;;;5108905;28;20133;-84
2023/03/21 08:59:57;;;;;;;32.10;19.15;;;9.30;99.90;;;;;;5091887;28;20120;-84
2023/03/21 09:02:22;;;;;;;36.60;20.88;;;9.30;99.90;;;;;;5108907;28;20051;-83
2023/03/21 09:04:48;;;;;;;34.80;21.30;;;9.20;99.90;;;;;;5109505;28;20058;-83
2023/03/21 09:07:16;;;;;;;32.15;20.50;;;9.20;99.90;;;;;;5074924;28;20119;-84
2023/03/21 09:09:42;;;;;;;31.83;19.92;;;9.30;99.90;;;;;;5092428;28;20132;-83
2023/03/21 09:14:54;;;;;;;31.67;19.15;;;9.10;99.90;;;;;;5112407;28;20052;-84
2023/03/21 09:17:20;;;;;;;35.22;18.67;;;9.10;99.90;;;;;;5108652;28;20047;-85
2023/03/21 09:19:46;;;;;;;34.45;18.58;;;8.10;99.90;;;;;;5108782;28;20044;-83
2023/03/21 09:22:16;;;;;;;36.53;20.05;;;9.20;99.90;;;;;;5075369;28;20463;-83
2023/03/21 09:24:46;;;;;;;32.88;19.33;;;9.10;99.90;;;;;;5108785;28;20048;-83
2023/03/21 09:27:16;;;;;;;35.75;19.20;;;9.20;99.90;;;;;;5108866;28;20044;-84
2023/03/21 09:29:43;;;;;;;32.83;19.60;;;9.10;99.90;;;;;;5108771;28;20143;-83
2023/03/21 09:32:11;;;;;;;40.22;18.88;;;9.10;99.90;;;;;;5109450;28;20448;-83
2023/03/21 09:34:39;;;;;;;34.33;19.35;;;9.20;99.90;;;;;;5092231;28;20131;-83
2023/03/21 09:37:12;;;;;;;35.25;18.45;;;9.20;99.90;;;;;;5108785;28;20139;-83
2023/03/21 09:39:41;;;;;;;34.28;19.35;;;8.30;99.90;;;;;;5091182;28;20135;-81
2023/03/21 09:42:16;;;;;;;31.05;18.77;;;9.30;99.90;;;;;;5108231;28;20089;-82
2023/03/21 09:44:52;;;;;;;30.67;17.83;;;9.40;99.90;;;;;;5108653;28;20440;-85
2023/03/21 09:47:28;;;;;;;35.60;18.05;;;9.40;99.90;;;;;;5108859;28;20055;-84
2023/03/21 09:50:18;;;;;;;35.13;17.92;;;9.50;99.90;;;;;;5095456;28;20422;-84
2023/03/21 09:53:17;;;;;;;33.78;17.40;;;9.60;99.90;;;;;;5095026;28;20108;-85
2023/03/21 09:55:45;;;;;;;29.00;16.73;;;9.60;99.90;;;;;;5077921;28;20073;-84
2023/03/21 09:58:32;;;;;;;30.42;16.75;;;9.80;99.90;;;;;;5112308;28;20044;-82
2023/03/21 10:01:28;;;;;;;30.23;14.50;;;9.80;99.90;;;;;;5112869;28;20064;-84
2023/03/21 10:04:02;;;;;;;30.20;15.35;;;9.90;99.90;;;;;;5112540;28;20044;-83
2023/03/21 10:06:30;;;;;;;26.73;13.77;;;10.10;99.90;;;;;;5095163;28;20139;-81
2023/03/21 10:09:23;;;;;;;27.42;13.55;;;10.00;99.90;;;;;;5094776;28;20044;-82
2023/03/21 10:12:07;;;;;;;24.27;13.38;;;10.10;99.90;;;;;;5112397;28;20043;-81
2023/03/21 10:14:46;;;;;;;24.23;13.82;;;10.10;99.90;;;;;;5094634;28;20135;-81
2023/03/21 10:17:36;;;;;;;20.80;12.77;;;10.10;99.90;;;;;;5112266;28;20108;-82
2023/03/21 10:20:31;;;;;;;21.60;12.80;;;10.10;99.90;;;;;;5095203;28;20196;-82
2023/03/21 10:23:00;;;;;;;22.75;12.43;;;10.10;99.90;;;;;;5111593;28;20070;-81
2023/03/21 10:25:39;;;;;;;23.38;12.00;;;10.10;99.90;;;;;;5111898;28;20056;-86
2023/03/21 10:28:10;;;;;;;22.90;11.30;;;10.20;99.90;;;;;;5111861;28;20055;-86
2023/03/21 10:30:43;;;;;;;19.25;11.23;;;10.20;99.90;;;;;;5111155;28;20067;-84
2023/03/21 10:33:19;;;;;;;19.90;10.38;;;10.10;99.90;;;;;;5111431;28;20048;-85
2023/03/21 10:35:57;;;;;;;24.15;10.00;;;10.30;99.90;;;;;;5111168;28;20501;-85
2023/03/21 10:38:24;;;;;;;20.52;10.25;;;10.20;99.90;;;;;;5111494;28;20415;-84
2023/03/21 10:40:50;;;;;;;15.93;10.05;;;10.30;99.90;;;;;;5094403;28;20044;-82
2023/03/21 10:43:18;;;;;;;17.73;10.05;;;10.40;99.90;;;;;;5111652;28;20138;-81
2023/03/21 10:45:47;;;;;;;16.83;10.13;;;10.50;99.90;;;;;;5111190;28;20051;-82
2023/03/21 10:48:14;;;;;;;18.08;9.43;;;10.60;99.90;;;;;;5128438;27;20052;-81
2023/03/21 10:50:41;;;;;;;17.42;9.50;;;10.60;99.90;;;;;;5094394;28;20040;-81
2023/03/21 10:53:19;;;;;;;19.02;10.38;;;10.70;99.90;;;;;;5110923;28;20058;-81
2023/03/21 10:55:49;;;;;;;17.50;9.80;;;10.80;99.90;;;;;;5110823;28;20052;-82
2023/03/21 10:58:24;;;;;;;17.60;10.38;;;10.90;99.90;;;;;;5093738;28;20464;-82
2023/03/21 11:00:56;;;;;;;19.15;10.73;;;11.00;99.90;;;;;;5111111;28;20138;-80
2023/03/21 11:03:45;;;;;;;16.27;9.35;;;11.00;99.90;;;;;;5093736;28;20059;-82
2023/03/21 11:06:22;;;;;;;18.13;10.32;;;11.00;99.90;;;;;;5111242;28;20040;-84
2023/03/21 11:08:54;;;;;;;17.88;9.63;;;11.00;99.90;;;;;;5110302;28;20044;-79
2023/03/21 11:11:32;;;;;;;17.52;10.18;;;11.00;99.90;;;;;;5110544;28;20046;-78
2023/03/21 11:14:00;;;;;;;17.25;9.55;;;11.00;99.90;;;;;;5110784;28;20068;-77
2023/03/21 11:16:40;;;;;;;16.77;9.63;;;11.00;99.90;;;;;;5093666;28;20040;-78
2023/03/21 11:19:26;;;;;;;18.02;10.43;;;11.00;99.90;;;;;;5110598;28;20044;-77
2023/03/21 11:21:52;;;;;;;17.35;9.23;;;11.00;99.90;;;;;;5110379;28;20051;-77
2023/03/21 11:24:19;;;;;;;13.68;8.88;;;11.00;99.90;;;;;;5110699;28;20083;-80
2023/03/21 11:26:48;;;;;;;16.85;10.00;;;11.00;99.90;;;;;;5110982;28;20063;-79
2023/03/21 11:29:27;;;;;;;13.95;8.73;;;11.00;99.90;;;;;;5096154;28;20055;-79
2023/03/21 11:32:17;;;;;;;16.55;9.27;;;10.90;99.90;;;;;;5114189;28;20062;-79
2023/03/21 11:34:42;;;;;;;14.63;9.07;;;10.80;99.90;;;;;;5068528;28;20487;-78
2023/03/21 11:37:23;;;;;;;16.13;8.65;;;10.80;99.90;;;;;;5113537;28;20054;-79
2023/03/21 11:40:18;;;;;;;18.42;9.48;;;10.80;99.90;;;;;;5114412;28;20104;-83
2023/03/21 11:42:47;;;;;;;17.38;9.00;;;10.70;99.90;;;;;;5083435;28;20040;-78
2023/03/21 11:45:25;;;;;;;15.65;9.00;;;10.60;99.90;;;;;;5113070;28;20051;-77
2023/03/21 11:47:54;;;;;;;15.32;8.95;;;10.70;99.90;;;;;;5097453;28;20040;-81
2023/03/21 11:50:25;;;;;;;16.40;9.48;;;10.70;99.90;;;;;;5079102;28;20391;-84
2023/03/21 11:53:11;;;;;;;13.60;9.23;;;10.80;99.90;;;;;;5113993;28;20047;-82
2023/03/21 11:55:56;;;;;;;15.65;9.20;;;10.80;99.90;;;;;;5080484;28;20057;-83
2023/03/21 11:58:28;;;;;;;15.73;8.68;;;10.80;99.90;;;;;;5114135;28;20100;-81
2023/03/21 12:01:10;;;;;;;17.08;9.15;;;11.00;99.90;;;;;;5113508;28;20039;-83
2023/03/21 12:03:48;;;;;;;14.38;8.95;;;11.00;99.90;;;;;;5096462;28;20396;-84
2023/03/21 12:06:29;;;;;;;18.90;9.65;;;10.60;99.90;;;;;;5113765;28;20497;-84
2023/03/21 12:09:04;;;;;;;18.83;9.13;;;11.30;99.90;;;;;;5113772;28;20463;-83
2023/03/21 12:11:51;;;;;;;18.25;9.60;;;11.30;99.90;;;;;;5113014;28;20128;-84
2023/03/21 12:14:40;;;;;;;16.88;9.25;;;11.50;99.90;;;;;;5097598;28;20055;-83
2023/03/21 12:17:21;;;;;;;16.30;9.57;;;11.50;99.90;;;;;;5113734;28;20368;-85
2023/03/21 12:19:53;;;;;;;15.95;9.80;;;10.40;99.90;;;;;;5113420;28;20098;-82
2023/03/21 12:22:26;;;;;;;20.08;10.20;;;11.40;99.90;;;;;;5130500;27;20079;-85
2023/03/21 12:24:54;;;;;;;16.58;8.75;;;11.40;99.90;;;;;;5113049;28;20040;-85
2023/03/21 12:27:49;;;;;;;14.68;9.25;;;11.30;99.90;;;;;;5112699;28;20143;-83
2023/03/21 12:30:41;;;;;;;16.33;9.20;;;11.20;99.90;;;;;;5112816;28;20060;-83
2023/03/21 12:33:20;;;;;;;15.48;9.00;;;11.20;99.90;;;;;;5113369;28;20051;-83
2023/03/21 12:36:16;;;;;;;16.05;9.18;;;11.10;99.90;;;;;;5096189;28;20047;-83
2023/03/21 12:38:59;;;;;;;17.80;9.80;;;11.10;99.90;;;;;;5095962;28;20047;-83
2023/03/21 12:42:10;;;;;;;16.27;9.55;;;11.20;99.90;;;;;;5113178;28;20127;-82
2023/03/21 12:44:45;;;;;;;19.08;10.00;;;11.20;99.90;;;;;;5017808;28;20048;-82
2023/03/21 12:47:20;;;;;;;14.60;10.10;;;11.30;99.90;;;;;;5018600;28;20055;-82
2023/03/21 12:49:54;;;;;;;15.13;10.15;;;11.50;99.90;;;;;;5070119;28;20104;-83
2023/03/21 12:52:37;;;;;;;20.45;11.13;;;11.60;99.90;;;;;;5112840;28;20104;-82
2023/03/21 12:55:20;;;;;;;17.60;10.65;;;11.80;99.90;;;;;;5112594;28;20051;-82
2023/03/21 12:58:12;;;;;;;17.83;11.05;;;12.00;99.90;;;;;;5129700;28;20094;-83
2023/03/21 13:00:48;;;;;;;16.50;11.65;;;12.10;99.90;;;;;;5112419;28;20043;-82